createdAt,value
2022-07-29T00:00:16.900Z,101612.06
2022-07-29T00:01:20.007Z,101612.28
2022-07-29T00:02:22.094Z,101616.84
2022-07-29T00:03:25.321Z,101620.53
2022-07-29T00:04:27.487Z,101616.19
2022-07-29T00:05:30.647Z,101619.88
2022-07-29T00:06:34.081Z,101618.25
2022-07-29T00:07:37.144Z,101618.44
2022-07-29T00:08:39.242Z,101613.28
2022-07-29T00:09:50.468Z,101619.66
2022-07-29T00:10:54.311Z,101612.63
2022-07-29T00:12:00.544Z,101614.69
2022-07-29T00:13:02.848Z,101619.22
2022-07-29T00:14:06.848Z,101626.66
2022-07-29T00:15:10.729Z,101613.44
2022-07-29T00:16:12.728Z,101613.81
2022-07-29T00:17:19.073Z,101609.47
2022-07-29T00:18:21.262Z,101609.69
2022-07-29T00:19:24.369Z,101616.25
2022-07-29T00:20:27.211Z,101608.41
2022-07-29T00:21:30.320Z,101608.59
2022-07-29T00:22:33.814Z,101597.22
2022-07-29T00:23:37.049Z,101606.31
2022-07-29T00:24:39.114Z,101605.66
2022-07-29T00:25:42.189Z,101597.81
2022-07-29T00:26:44.271Z,101603.38
2022-07-29T00:27:47.836Z,101606.28
2022-07-29T00:28:49.857Z,101605.63
2022-07-29T00:29:52.882Z,101605.84
2022-07-29T00:30:54.963Z,101604.19
2022-07-29T00:31:58.160Z,101606.22
2022-07-29T00:33:00.243Z,101598.19
2022-07-29T00:34:03.398Z,101602.06
2022-07-29T00:35:24.908Z,101594.22
2022-07-29T00:36:26.966Z,101590.91
2022-07-29T00:37:29.037Z,101596.66
2022-07-29T00:38:33.411Z,101596.66
2022-07-29T00:39:35.464Z,101595.00
2022-07-29T00:40:38.464Z,101589.66
2022-07-29T00:41:45.217Z,101593.34
2022-07-29T00:42:49.790Z,101596.03
2022-07-29T00:43:51.828Z,101585.47
2022-07-29T00:44:54.922Z,101589.19
2022-07-29T00:45:57.060Z,101585.69
2022-07-29T00:47:00.166Z,101587.53
2022-07-29T00:48:02.360Z,101590.41
2022-07-29T00:49:05.662Z,101588.75
2022-07-29T00:50:11.335Z,101593.28
2022-07-29T00:51:15.109Z,101593.47
2022-07-29T00:52:17.351Z,101595.31
2022-07-29T00:53:22.213Z,101594.53
2022-07-29T00:54:25.665Z,101592.84
2022-07-29T00:55:28.856Z,101593.03
2022-07-29T00:56:31.726Z,101591.41
2022-07-29T00:57:35.102Z,101585.38
2022-07-29T00:58:37.252Z,101585.38
2022-07-29T00:59:40.456Z,101588.06
2022-07-29T01:00:43.713Z,101581.06
2022-07-29T01:01:47.636Z,101588.28
2022-07-29T01:02:50.707Z,101586.63
2022-07-29T01:03:53.183Z,101581.44
2022-07-29T01:04:57.999Z,101584.09
2022-07-29T01:06:02.060Z,101572.56
2022-07-29T01:07:05.198Z,101577.09
2022-07-29T01:08:09.296Z,101582.47
2022-07-29T01:09:12.062Z,101578.13
2022-07-29T01:10:18.112Z,101574.63
2022-07-29T01:11:21.010Z,101576.47
2022-07-29T01:12:26.144Z,101574.81
2022-07-29T01:13:29.903Z,101582.84
2022-07-29T01:14:32.480Z,101573.78
2022-07-29T01:15:39.261Z,101570.28
2022-07-29T01:16:55.688Z,101570.28
2022-07-29T01:18:05.986Z,101569.25
2022-07-29T01:19:24.147Z,101568.41
2022-07-29T01:20:39.841Z,101577.28
2022-07-29T01:21:52.953Z,101571.75
2022-07-29T01:23:28.210Z,101572.56
2022-07-29T01:24:52.462Z,101568.03
2022-07-29T01:26:29.849Z,101566.38
2022-07-29T01:27:46.518Z,101572.56
2022-07-29T01:29:06.157Z,101568.22
2022-07-29T01:30:11.789Z,101569.25
2022-07-29T01:31:25.215Z,101566.56
2022-07-29T01:32:33.506Z,101574.63
2022-07-29T01:33:51.123Z,101554.38
2022-07-29T01:34:58.256Z,101557.44
2022-07-29T01:36:02.990Z,101561.41
2022-07-29T01:37:13.851Z,101559.72
2022-07-29T01:38:21.846Z,101560.56
2022-07-29T01:39:29.430Z,101564.28
2022-07-29T01:40:39.840Z,101554.56
2022-07-29T01:41:51.675Z,101550.25
2022-07-29T01:42:56.772Z,101552.72
2022-07-29T01:44:04.909Z,101554.38
2022-07-29T01:45:11.916Z,101548.19
2022-07-29T01:46:20.350Z,101548.19
2022-07-29T01:47:27.120Z,101549.00
2022-07-29T01:48:37.906Z,101546.53
2022-07-29T01:49:44.343Z,101543.84
2022-07-29T01:50:51.462Z,101542.84
2022-07-29T01:51:58.639Z,101532.50
2022-07-29T01:53:04.248Z,101536.44
2022-07-29T01:54:11.929Z,101540.78
2022-07-29T01:55:17.341Z,101541.59
2022-07-29T01:56:25.318Z,101537.91
2022-07-29T01:57:32.906Z,101537.91
2022-07-29T01:58:37.777Z,101535.03
2022-07-29T01:59:43.798Z,101536.88
2022-07-29T02:00:47.922Z,101535.84
2022-07-29T02:01:54.432Z,101534.00
2022-07-29T02:02:58.025Z,101536.47
2022-07-29T02:04:04.305Z,101518.53
2022-07-29T02:05:11.259Z,101527.44
2022-07-29T02:06:17.412Z,101522.88
2022-07-29T02:07:23.103Z,101522.69
2022-07-29T02:08:26.861Z,101518.16
2022-07-29T02:09:31.043Z,101525.19
2022-07-29T02:10:35.517Z,101527.66
2022-07-29T02:11:40.218Z,101516.75
2022-07-29T02:12:48.558Z,101512.19
2022-07-29T02:13:56.827Z,101520.88
2022-07-29T02:15:02.378Z,101522.53
2022-07-29T02:16:08.945Z,101515.31
2022-07-29T02:17:13.194Z,101520.47
2022-07-29T02:18:20.660Z,101518.63
2022-07-29T02:19:25.681Z,101520.09
2022-07-29T02:20:30.351Z,101516.38
2022-07-29T02:21:34.701Z,101509.16
2022-07-29T02:22:40.045Z,101510.81
2022-07-29T02:23:50.545Z,101513.31
2022-07-29T02:24:55.612Z,101516.63
2022-07-29T02:26:01.166Z,101509.41
2022-07-29T02:27:05.005Z,101508.78
2022-07-29T02:28:09.533Z,101512.72
2022-07-29T02:29:14.532Z,101508.16
2022-07-29T02:30:20.361Z,101507.38
2022-07-29T02:31:26.738Z,101515.22
2022-07-29T02:32:31.456Z,101505.69
2022-07-29T02:33:35.059Z,101509.66
2022-07-29T02:34:40.603Z,101516.66
2022-07-29T02:35:45.885Z,101510.28
2022-07-29T02:36:51.573Z,101515.44
2022-07-29T02:38:09.830Z,101504.72
2022-07-29T02:39:14.564Z,101506.34
2022-07-29T02:40:17.549Z,101503.69
2022-07-29T02:41:25.316Z,101508.00
2022-07-29T02:42:28.964Z,101513.19
2022-07-29T02:43:33.781Z,101516.69
2022-07-29T02:44:37.356Z,101512.16
2022-07-29T02:45:40.844Z,101509.47
2022-07-29T02:46:48.683Z,101503.06
2022-07-29T02:47:51.672Z,101508.44
2022-07-29T02:49:01.774Z,101503.91
2022-07-29T02:50:09.374Z,101504.94
2022-07-29T02:51:43.370Z,101506.78
2022-07-29T02:52:44.976Z,101504.09
2022-07-29T02:53:52.390Z,101504.09
2022-07-29T02:54:59.140Z,101504.09
2022-07-29T02:56:05.906Z,101497.66
2022-07-29T02:57:21.035Z,101505.75
2022-07-29T02:58:29.567Z,101505.16
2022-07-29T02:59:36.729Z,101497.09
2022-07-29T03:00:42.179Z,101507.63
2022-07-29T03:01:45.971Z,101503.91
2022-07-29T03:02:52.300Z,101499.59
2022-07-29T03:03:56.517Z,101502.06
2022-07-29T03:04:59.200Z,101492.34
2022-07-29T03:06:05.561Z,101494.22
2022-07-29T03:07:08.443Z,101495.22
2022-07-29T03:08:14.239Z,101502.47
2022-07-29T03:09:17.005Z,101495.22
2022-07-29T03:10:20.564Z,101496.91
2022-07-29T03:11:23.497Z,101489.84
2022-07-29T03:12:47.501Z,101492.53
2022-07-29T03:13:50.185Z,101489.84
2022-07-29T03:14:54.391Z,101492.53
2022-07-29T03:15:58.909Z,101491.72
2022-07-29T03:17:02.560Z,101496.06
2022-07-29T03:18:06.543Z,101492.34
2022-07-29T03:19:09.974Z,101496.06
2022-07-29T03:20:13.797Z,101494.22
2022-07-29T03:21:16.991Z,101502.25
2022-07-29T03:22:19.438Z,101497.69
2022-07-29T03:23:23.805Z,101502.25
2022-07-29T03:24:27.932Z,101495.66
2022-07-29T03:25:30.958Z,101498.34
2022-07-29T03:26:33.134Z,101504.53
2022-07-29T03:27:36.552Z,101504.34
2022-07-29T03:28:38.655Z,101498.13
2022-07-29T03:29:43.687Z,101491.75
2022-07-29T03:30:52.143Z,101490.94
2022-07-29T03:31:56.869Z,101489.88
2022-07-29T03:32:58.985Z,101489.88
2022-07-29T03:34:02.070Z,101492.56
2022-07-29T03:35:05.047Z,101491.56
2022-07-29T03:36:08.243Z,101485.34
2022-07-29T03:37:11.281Z,101485.34
2022-07-29T03:38:13.275Z,101486.19
2022-07-29T03:39:19.283Z,101489.09
2022-07-29T03:40:27.085Z,101487.19
2022-07-29T03:41:31.915Z,101489.09
2022-07-29T03:42:36.697Z,101486.41
2022-07-29T03:43:49.411Z,101486.41
2022-07-29T03:44:54.574Z,101481.84
2022-07-29T03:45:59.842Z,101482.88
2022-07-29T03:47:05.449Z,101479.16
2022-07-29T03:48:12.243Z,101485.34
2022-07-29T03:49:17.193Z,101480.00
2022-07-29T03:50:22.436Z,101478.16
2022-07-29T03:51:33.129Z,101481.63
2022-07-29T03:52:37.224Z,101484.16
2022-07-29T03:53:39.392Z,101486.81
2022-07-29T03:54:42.865Z,101477.75
2022-07-29T03:55:48.030Z,101483.94
2022-07-29T03:56:53.934Z,101486.63
2022-07-29T03:57:57.918Z,101478.38
2022-07-29T03:59:01.593Z,101485.38
2022-07-29T04:00:05.668Z,101480.84
2022-07-29T04:01:08.882Z,101481.69
2022-07-29T04:02:12.813Z,101483.34
2022-07-29T04:03:16.104Z,101483.97
2022-07-29T04:04:18.849Z,101482.28
2022-07-29T04:05:22.216Z,101483.97
2022-07-29T04:06:24.264Z,101485.59
2022-07-29T04:07:27.391Z,101486.25
2022-07-29T04:08:29.469Z,101478.19
2022-07-29T04:09:32.797Z,101479.84
2022-07-29T04:10:35.802Z,101486.88
2022-07-29T04:12:03.346Z,101480.47
2022-07-29T04:13:03.241Z,101484.81
2022-07-29T04:14:05.445Z,101491.00
2022-07-29T04:15:09.619Z,101488.13
2022-07-29T04:16:11.707Z,101484.63
2022-07-29T04:17:16.111Z,101496.81
2022-07-29T04:18:18.205Z,101489.59
2022-07-29T04:19:21.236Z,101484.00
2022-07-29T04:20:23.368Z,101489.19
2022-07-29T04:21:26.491Z,101482.16
2022-07-29T04:22:28.667Z,101486.28
2022-07-29T04:23:33.472Z,101485.28
2022-07-29T04:24:35.893Z,101486.94
2022-07-29T04:25:40.408Z,101485.88
2022-07-29T04:26:42.454Z,101487.56
2022-07-29T04:27:59.333Z,101490.03
2022-07-29T04:29:02.804Z,101485.50
2022-07-29T04:30:06.233Z,101480.72
2022-07-29T04:31:09.346Z,101480.72
2022-07-29T04:32:11.431Z,101474.75
2022-07-29T04:33:16.007Z,101485.09
2022-07-29T04:34:18.828Z,101483.69
2022-07-29T04:35:22.914Z,101481.63
2022-07-29T04:36:29.146Z,101480.59
2022-07-29T04:37:33.020Z,101483.09
2022-07-29T04:38:35.124Z,101481.03
2022-07-29T04:39:38.169Z,101480.81
2022-07-29T04:40:40.218Z,101486.81
2022-07-29T04:41:43.253Z,101484.94
2022-07-29T04:42:46.692Z,101479.38
2022-07-29T04:43:51.277Z,101480.84
2022-07-29T04:44:54.033Z,101486.00
2022-07-29T04:45:57.144Z,101481.28
2022-07-29T04:46:59.266Z,101481.06
2022-07-29T04:48:02.288Z,101479.00
2022-07-29T04:49:05.929Z,101481.47
2022-07-29T04:50:10.263Z,101482.09
2022-07-29T04:51:12.273Z,101489.13
2022-07-29T04:52:15.372Z,101487.88
2022-07-29T04:53:17.408Z,101487.66
2022-07-29T04:54:20.586Z,101483.75
2022-07-29T04:55:22.593Z,101479.81
2022-07-29T04:56:25.656Z,101486.88
2022-07-29T04:57:27.803Z,101491.00
2022-07-29T04:58:30.954Z,101485.63
2022-07-29T04:59:33.030Z,101483.56
2022-07-29T05:00:36.178Z,101483.34
2022-07-29T05:01:38.331Z,101485.03
2022-07-29T05:02:41.501Z,101471.81
2022-07-29T05:03:43.785Z,101476.56
2022-07-29T05:04:48.252Z,101484.41
2022-07-29T05:05:50.319Z,101484.19
2022-07-29T05:06:53.349Z,101485.84
2022-07-29T05:07:56.216Z,101488.13
2022-07-29T05:08:59.242Z,101487.09
2022-07-29T05:10:01.339Z,101488.56
2022-07-29T05:11:12.463Z,101496.41
2022-07-29T05:12:15.832Z,101497.00
2022-07-29T05:13:18.938Z,101494.94
2022-07-29T05:14:21.116Z,101497.44
2022-07-29T05:15:24.701Z,101497.22
2022-07-29T05:16:26.967Z,101497.84
2022-07-29T05:17:30.200Z,101494.16
2022-07-29T05:18:32.201Z,101496.00
2022-07-29T05:19:39.686Z,101499.31
2022-07-29T05:20:44.268Z,101500.13
2022-07-29T05:21:46.353Z,101498.47
2022-07-29T05:22:49.800Z,101501.59
2022-07-29T05:23:51.902Z,101492.69
2022-07-29T05:24:54.912Z,101500.53
2022-07-29T05:25:56.899Z,101491.47
2022-07-29T05:26:59.921Z,101486.88
2022-07-29T05:28:01.989Z,101493.09
2022-07-29T05:29:05.019Z,101498.06
2022-07-29T05:30:09.298Z,101493.50
2022-07-29T05:31:11.386Z,101503.03
2022-07-29T05:32:14.800Z,101497.47
2022-07-29T05:33:34.849Z,101498.88
2022-07-29T05:34:50.133Z,101499.50
2022-07-29T05:36:00.165Z,101498.88
2022-07-29T05:37:02.781Z,101499.50
2022-07-29T05:38:06.344Z,101494.75
2022-07-29T05:39:09.609Z,101498.88
2022-07-29T05:40:12.856Z,101497.66
2022-07-29T05:41:14.979Z,101499.28
2022-07-29T05:42:18.079Z,101512.31
2022-07-29T05:43:20.204Z,101504.88
2022-07-29T05:44:25.277Z,101507.97
2022-07-29T05:45:28.430Z,101512.13
2022-07-29T05:46:31.565Z,101503.63
2022-07-29T05:47:33.676Z,101506.94
2022-07-29T05:48:36.760Z,101505.91
2022-07-29T05:49:38.865Z,101507.34
2022-07-29T05:50:44.223Z,101509.00
2022-07-29T05:51:51.676Z,101512.97
2022-07-29T05:52:54.732Z,101509.00
2022-07-29T05:53:56.771Z,101514.41
2022-07-29T05:55:00.126Z,101509.22
2022-07-29T05:56:04.531Z,101505.28
2022-07-29T05:57:07.746Z,101505.06
2022-07-29T05:58:09.937Z,101502.97
2022-07-29T05:59:15.550Z,101507.34
2022-07-29T06:00:20.448Z,101503.38
2022-07-29T06:01:23.535Z,101508.75
2022-07-29T06:02:25.675Z,101507.09
2022-07-29T06:03:28.723Z,101498.59
2022-07-29T06:04:31.814Z,101504.38
2022-07-29T06:05:33.893Z,101503.75
2022-07-29T06:06:37.172Z,101506.03
2022-07-29T06:07:41.866Z,101509.94
2022-07-29T06:08:53.146Z,101501.25
2022-07-29T06:09:56.171Z,101507.84
2022-07-29T06:10:58.163Z,101503.06
2022-07-29T06:12:01.207Z,101500.38
2022-07-29T06:13:03.862Z,101504.91
2022-07-29T06:14:07.000Z,101499.91
2022-07-29T06:15:10.308Z,101506.53
2022-07-29T06:16:15.787Z,101505.06
2022-07-29T06:17:33.078Z,101507.94
2022-07-29T06:18:35.084Z,101510.00
2022-07-29T06:19:38.274Z,101509.34
2022-07-29T06:20:41.401Z,101503.31
2022-07-29T06:21:44.529Z,101503.47
2022-07-29T06:22:48.962Z,101501.81
2022-07-29T06:23:51.013Z,101504.69
2022-07-29T06:24:54.558Z,101501.31
2022-07-29T06:25:56.600Z,101509.63
2022-07-29T06:26:59.650Z,101501.91
2022-07-29T06:28:02.005Z,101502.09
2022-07-29T06:29:05.180Z,101496.88
2022-07-29T06:30:09.117Z,101496.25
2022-07-29T06:31:11.218Z,101500.75
2022-07-29T06:32:14.387Z,101492.00
2022-07-29T06:33:19.740Z,101496.53
2022-07-29T06:34:22.769Z,101501.84
2022-07-29T06:35:40.927Z,101500.97
2022-07-29T06:36:45.991Z,101490.94
2022-07-29T06:37:49.564Z,101498.97
2022-07-29T06:38:56.946Z,101497.28
2022-07-29T06:40:13.899Z,101490.38
2022-07-29T06:41:17.058Z,101498.63
2022-07-29T06:42:19.018Z,101491.53
2022-07-29T06:43:22.042Z,101492.75
2022-07-29T06:44:25.876Z,101491.69
2022-07-29T06:45:27.833Z,101484.41
2022-07-29T06:46:31.624Z,101503.00
2022-07-29T06:47:33.636Z,101498.00
2022-07-29T06:48:38.064Z,101492.97
2022-07-29T06:49:41.109Z,101497.09
2022-07-29T06:50:43.163Z,101500.44
2022-07-29T06:51:46.275Z,101491.88
2022-07-29T06:52:49.632Z,101493.91
2022-07-29T06:54:00.394Z,101497.00
2022-07-29T06:55:06.421Z,101500.66
2022-07-29T06:56:10.338Z,101494.00
2022-07-29T06:57:12.406Z,101497.06
2022-07-29T06:58:17.026Z,101485.81
2022-07-29T06:59:35.074Z,101492.38
2022-07-29T07:00:37.683Z,101489.25
2022-07-29T07:01:43.837Z,101490.66
2022-07-29T07:02:45.992Z,101483.75
2022-07-29T07:03:50.582Z,101479.53
2022-07-29T07:04:52.887Z,101482.00
2022-07-29T07:05:56.868Z,101482.16
2022-07-29T07:07:00.093Z,101491.00
2022-07-29T07:08:04.722Z,101479.28
2022-07-29T07:09:07.956Z,101488.94
2022-07-29T07:10:10.444Z,101485.91
2022-07-29T07:11:13.494Z,101488.31
2022-07-29T07:12:15.544Z,101491.28
2022-07-29T07:13:19.212Z,101487.44
2022-07-29T07:14:22.329Z,101489.56
2022-07-29T07:15:39.651Z,101492.75
2022-07-29T07:16:42.994Z,101486.81
2022-07-29T07:17:45.091Z,101477.25
2022-07-29T07:18:48.158Z,101485.84
2022-07-29T07:19:50.399Z,101484.69
2022-07-29T07:20:53.481Z,101478.09
2022-07-29T07:21:55.498Z,101483.38
2022-07-29T07:22:58.696Z,101480.78
2022-07-29T07:24:06.878Z,101484.44
2022-07-29T07:25:09.850Z,101476.44
2022-07-29T07:26:12.830Z,101481.97
2022-07-29T07:27:14.885Z,101483.19
2022-07-29T07:28:17.896Z,101486.00
2022-07-29T07:29:19.944Z,101488.81
2022-07-29T07:30:23.425Z,101486.44
2022-07-29T07:31:27.018Z,101472.88
2022-07-29T07:32:29.127Z,101476.63
2022-07-29T07:33:32.312Z,101481.34
2022-07-29T07:34:34.558Z,101484.38
2022-07-29T07:35:37.596Z,101478.50
2022-07-29T07:36:39.696Z,101476.69
2022-07-29T07:37:42.848Z,101482.13
2022-07-29T07:38:44.956Z,101476.69
2022-07-29T07:39:49.473Z,101475.66
2022-07-29T07:40:52.562Z,101473.75
2022-07-29T07:41:55.620Z,101472.47
2022-07-29T07:42:58.628Z,101474.94
2022-07-29T07:44:00.727Z,101473.06
2022-07-29T07:45:13.508Z,101474.44
2022-07-29T07:46:17.460Z,101469.38
2022-07-29T07:47:20.878Z,101480.78
2022-07-29T07:48:25.381Z,101482.44
2022-07-29T07:49:27.633Z,101482.19
2022-07-29T07:50:30.746Z,101478.44
2022-07-29T07:51:33.021Z,101472.16
2022-07-29T07:52:36.254Z,101479.22
2022-07-29T07:53:38.292Z,101478.19
2022-07-29T07:54:41.316Z,101478.19
2022-07-29T07:56:10.620Z,101473.59
2022-07-29T07:57:08.672Z,101478.78
2022-07-29T07:58:11.843Z,101471.44
2022-07-29T07:59:13.921Z,101474.97
2022-07-29T08:00:18.202Z,101466.84
2022-07-29T08:01:24.002Z,101464.97
2022-07-29T08:02:27.206Z,101470.38
2022-07-29T08:03:29.285Z,101467.69
2022-07-29T08:04:32.304Z,101469.56
2022-07-29T08:05:34.426Z,101472.84
2022-07-29T08:06:37.931Z,101467.19
2022-07-29T08:07:40.287Z,101466.34
2022-07-29T08:08:43.827Z,101466.69
2022-07-29T08:09:45.930Z,101463.75
2022-07-29T08:10:57.340Z,101450.34
2022-07-29T08:11:59.822Z,101464.66
2022-07-29T08:13:04.555Z,101465.84
2022-07-29T08:14:07.614Z,101464.25
2022-07-29T08:15:10.418Z,101461.91
2022-07-29T08:16:22.826Z,101464.72
2022-07-29T08:17:25.089Z,101467.03
2022-07-29T08:18:29.183Z,101463.91
2022-07-29T08:19:32.451Z,101466.25
2022-07-29T08:20:36.402Z,101463.94
2022-07-29T08:21:39.543Z,101461.63
2022-07-29T08:22:41.560Z,101476.94
2022-07-29T08:23:59.758Z,101468.63
2022-07-29T08:25:04.411Z,101461.13
2022-07-29T08:26:11.470Z,101457.41
2022-07-29T08:27:40.611Z,101461.59
2022-07-29T08:28:37.353Z,101463.94
2022-07-29T08:29:40.637Z,101456.44
2022-07-29T08:30:43.696Z,101457.03
2022-07-29T08:31:46.922Z,101464.78
2022-07-29T08:32:54.543Z,101458.34
2022-07-29T08:34:00.786Z,101456.75
2022-07-29T08:35:03.829Z,101465.31
2022-07-29T08:36:06.961Z,101467.25
2022-07-29T08:37:10.024Z,101462.97
2022-07-29T08:38:12.122Z,101473.91
2022-07-29T08:39:15.147Z,101471.47
2022-07-29T08:40:17.455Z,101469.66
2022-07-29T08:41:22.217Z,101473.25
2022-07-29T08:42:25.284Z,101473.06
2022-07-29T08:43:28.667Z,101469.81
2022-07-29T08:44:31.869Z,101468.28
2022-07-29T08:45:47.374Z,101466.69
2022-07-29T08:46:52.208Z,101468.91
2022-07-29T08:47:54.580Z,101467.56
2022-07-29T08:48:57.904Z,101468.44
2022-07-29T08:50:00.223Z,101460.34
2022-07-29T08:51:04.456Z,101470.69
2022-07-29T08:52:08.395Z,101471.84
2022-07-29T08:53:12.979Z,101471.88
2022-07-29T08:54:19.663Z,101467.56
2022-07-29T08:55:21.986Z,101469.25
2022-07-29T08:56:26.431Z,101468.47
2022-07-29T08:57:30.171Z,101469.09
2022-07-29T08:58:36.978Z,101462.88
2022-07-29T08:59:43.009Z,101470.50
2022-07-29T09:00:49.984Z,101464.28
2022-07-29T09:01:55.875Z,101457.25
2022-07-29T09:03:00.856Z,101463.00
2022-07-29T09:04:06.582Z,101459.25
2022-07-29T09:05:09.479Z,101462.28
2022-07-29T09:06:15.582Z,101463.66
2022-07-29T09:07:20.089Z,101462.03
2022-07-29T09:08:24.007Z,101456.63
2022-07-29T09:09:27.057Z,101459.38
2022-07-29T09:10:30.008Z,101470.59
2022-07-29T09:11:35.885Z,101461.09
2022-07-29T09:12:39.327Z,101452.09
2022-07-29T09:13:41.776Z,101453.25
2022-07-29T09:14:44.804Z,101450.81
2022-07-29T09:15:46.838Z,101457.34
2022-07-29T09:16:53.780Z,101446.47
2022-07-29T09:18:04.551Z,101454.16
2022-07-29T09:19:21.186Z,101450.94
2022-07-29T09:20:24.985Z,101450.44
2022-07-29T09:21:59.447Z,101448.06
2022-07-29T09:23:09.965Z,101446.16
2022-07-29T09:24:13.480Z,101454.66
2022-07-29T09:25:34.334Z,101444.31
2022-07-29T09:26:40.280Z,101444.91
2022-07-29T09:27:43.404Z,101442.75
2022-07-29T09:28:45.437Z,101442.78
2022-07-29T09:29:48.636Z,101440.38
2022-07-29T09:30:54.603Z,101443.09
2022-07-29T09:31:57.792Z,101440.88
2022-07-29T09:33:02.262Z,101440.38
2022-07-29T09:34:06.607Z,101447.19
2022-07-29T09:35:20.150Z,101444.44
2022-07-29T09:36:22.711Z,101442.81
2022-07-29T09:37:29.798Z,101440.38
2022-07-29T09:38:32.047Z,101444.19
2022-07-29T09:39:39.222Z,101438.72
2022-07-29T09:40:41.706Z,101452.66
2022-07-29T09:41:51.279Z,101442.81
2022-07-29T09:42:56.670Z,101443.63
2022-07-29T09:44:00.707Z,101451.28
2022-07-29T09:45:04.286Z,101451.81
2022-07-29T09:46:18.925Z,101445.84
2022-07-29T09:47:26.914Z,101445.00
2022-07-29T09:48:29.482Z,101448.56
2022-07-29T09:49:32.563Z,101454.53
2022-07-29T09:50:40.163Z,101456.47
2022-07-29T09:51:42.374Z,101457.84
2022-07-29T09:52:48.771Z,101456.22
2022-07-29T09:53:51.537Z,101455.94
2022-07-29T09:55:07.483Z,101448.56
2022-07-29T09:56:11.686Z,101455.66
2022-07-29T09:57:30.317Z,101452.91
2022-07-29T09:58:34.634Z,101449.09
2022-07-29T09:59:37.760Z,101454.03
2022-07-29T10:00:56.123Z,101458.13
2022-07-29T10:01:58.669Z,101446.91
2022-07-29T10:03:03.767Z,101456.47
2022-07-29T10:04:06.005Z,101453.19
2022-07-29T10:05:19.498Z,101451.81
2022-07-29T10:06:21.578Z,101461.13
2022-07-29T10:07:24.963Z,101459.22
2022-07-29T10:08:27.619Z,101459.50
2022-07-29T10:09:30.822Z,101457.81
2022-07-29T10:10:35.748Z,101459.75
2022-07-29T10:11:48.856Z,101456.19
2022-07-29T10:12:56.533Z,101457.81
2022-07-29T10:13:58.960Z,101439.53
2022-07-29T10:15:04.112Z,101451.00
2022-07-29T10:16:07.406Z,101453.47
2022-07-29T10:17:12.287Z,101444.72
2022-07-29T10:18:15.524Z,101445.28
2022-07-29T10:19:19.392Z,101444.19
2022-07-29T10:20:27.066Z,101448.28
2022-07-29T10:21:35.835Z,101439.81
2022-07-29T10:22:54.409Z,101441.44
2022-07-29T10:24:01.103Z,101434.34
2022-07-29T10:25:03.990Z,101440.09
2022-07-29T10:26:07.046Z,101438.72
2022-07-29T10:27:12.279Z,101441.44
2022-07-29T10:28:16.795Z,101432.19
2022-07-29T10:29:20.112Z,101432.97
2022-07-29T10:30:27.131Z,101437.63
2022-07-29T10:31:35.884Z,101426.41
2022-07-29T10:33:04.182Z,101430.19
2022-07-29T10:34:14.921Z,101437.59
2022-07-29T10:35:42.225Z,101427.72
2022-07-29T10:36:56.117Z,101428.56
2022-07-29T10:38:16.530Z,101435.34
2022-07-29T10:39:41.565Z,101431.25
2022-07-29T10:41:19.336Z,101428.53
2022-07-29T10:42:29.669Z,101423.09
2022-07-29T10:43:42.307Z,101418.44
2022-07-29T10:44:46.679Z,101418.44
2022-07-29T10:45:50.896Z,101423.09
2022-07-29T10:46:56.829Z,101425.53
2022-07-29T10:48:07.909Z,101418.69
2022-07-29T10:49:15.612Z,101416.78
2022-07-29T10:50:18.066Z,101421.41
2022-07-29T10:51:21.361Z,101425.53
2022-07-29T10:52:26.588Z,101423.63
2022-07-29T10:53:51.075Z,101423.38
2022-07-29T10:54:54.711Z,101418.47
2022-07-29T10:55:56.793Z,101423.91
2022-07-29T10:57:16.111Z,101420.63
2022-07-29T10:58:20.489Z,101420.63
2022-07-29T10:59:32.379Z,101422.53
2022-07-29T11:00:39.256Z,101415.97
2022-07-29T11:01:49.324Z,101416.25
2022-07-29T11:02:56.482Z,101419.25
2022-07-29T11:03:59.944Z,101418.19
2022-07-29T11:05:02.825Z,101417.91
2022-07-29T11:06:08.765Z,101414.91
2022-07-29T11:07:11.629Z,101413.81
2022-07-29T11:08:26.353Z,101421.19
2022-07-29T11:09:37.637Z,101418.19
2022-07-29T11:10:41.119Z,101424.75
2022-07-29T11:13:06.512Z,101421.50
2022-07-29T11:14:10.369Z,101421.53
2022-07-29T11:15:18.340Z,101417.97
2022-07-29T11:16:24.921Z,101422.31
2022-07-29T11:17:28.059Z,101426.16
2022-07-29T11:20:46.874Z,101428.34
2022-07-29T11:23:27.617Z,101418.78
2022-07-29T11:24:36.984Z,101411.63
2022-07-29T11:25:50.710Z,101416.03
2022-07-29T11:27:17.894Z,101408.03
2022-07-29T11:28:25.587Z,101428.22
2022-07-29T11:29:28.869Z,101411.75
2022-07-29T11:30:52.640Z,101413.59
2022-07-29T11:32:10.291Z,101409.41
2022-07-29T11:33:37.584Z,101412.84
2022-07-29T11:37:17.760Z,101403.50
2022-07-29T11:38:29.367Z,101412.66
2022-07-29T11:39:36.586Z,101405.13
2022-07-29T11:40:42.626Z,101402.88
2022-07-29T11:41:44.705Z,101402.75
2022-07-29T11:42:51.975Z,101405.72
2022-07-29T11:43:55.996Z,101402.63
2022-07-29T11:45:08.502Z,101408.28
2022-07-29T11:46:50.010Z,101402.44
2022-07-29T11:47:56.130Z,101414.78
2022-07-29T11:49:01.009Z,101404.88
2022-07-29T11:50:10.191Z,101410.38
2022-07-29T11:51:13.759Z,101395.09
2022-07-29T11:52:15.926Z,101402.56
2022-07-29T11:53:20.523Z,101402.09
2022-07-29T11:54:27.491Z,101389.56
2022-07-29T11:55:33.844Z,101392.59
2022-07-29T11:56:44.672Z,101395.34
2022-07-29T11:58:03.893Z,101397.78
2022-07-29T11:59:10.242Z,101390.63
2022-07-29T12:00:31.277Z,101387.91
2022-07-29T12:01:33.722Z,101389.03
2022-07-29T12:02:48.100Z,101387.41
2022-07-29T12:04:04.915Z,101382.97
2022-07-29T12:05:11.305Z,101382.19
2022-07-29T12:06:17.459Z,101384.91
2022-07-29T12:07:03.466Z,101410.47
2022-07-29T12:07:34.774Z,101381.09
2022-07-29T12:08:43.429Z,101382.72
2022-07-29T12:09:52.269Z,101377.47
2022-07-29T12:10:55.358Z,101378.75
2022-07-29T12:12:04.951Z,101378.66
2022-07-29T12:13:09.204Z,101374.34
2022-07-29T12:14:27.081Z,101378.25
2022-07-29T12:15:39.217Z,101380.81
2022-07-29T12:16:50.655Z,101381.91
2022-07-29T12:17:55.437Z,101369.41
2022-07-29T12:18:59.909Z,101378.00
2022-07-29T12:20:04.608Z,101375.88
2022-07-29T12:21:09.241Z,101373.00
2022-07-29T12:22:26.484Z,101371.72
2022-07-29T12:23:35.041Z,101371.03
2022-07-29T12:24:45.111Z,101372.25
2022-07-29T12:25:49.734Z,101372.16
2022-07-29T12:26:53.121Z,101369.84
2022-07-29T12:28:07.390Z,101380.44
2022-07-29T12:29:20.461Z,101369.03
2022-07-29T12:30:44.982Z,101367.84
2022-07-29T12:31:47.438Z,101373.28
2022-07-29T12:32:50.823Z,101372.13
2022-07-29T12:33:55.970Z,101377.84
2022-07-29T12:35:03.809Z,101358.75
2022-07-29T12:36:09.455Z,101381.59
2022-07-29T12:37:13.951Z,101379.03
2022-07-29T12:38:17.642Z,101368.84